sensor_id;sensor_type;location;lat;lon;timestamp;pressure;altitude;pressure_sealevel;temperature;humidity
69737;BME280;64476;55.004;73.342;2023-03-04T00:01:28;100568.91;;;-12.97;52.70
69737;BME280;64476;55.004;73.342;2023-03-04T00:04:35;100556.47;;;-13.23;53.11
69737;BME280;64476;55.004;73.342;2023-03-04T00:07:46;100518.72;;;-13.52;52.61
69737;BME280;64476;55.004;73.342;2023-03-04T00:10:48;100519.63;;;-13.67;52.80
69737;BME280;64476;55.004;73.342;2023-03-04T00:13:49;100551.56;;;-13.54;53.32
69737;BME280;64476;55.004;73.342;2023-03-04T00:16:56;100557.44;;;-13.50;52.81
69737;BME280;64476;55.004;73.342;2023-03-04T00:19:57;100578.50;;;-13.45;53.21
69737;BME280;64476;55.004;73.342;2023-03-04T00:22:59;100581.91;;;-13.49;52.90
69737;BME280;64476;55.004;73.342;2023-03-04T00:26:01;100573.50;;;-13.53;53.36
69737;BME280;64476;55.004;73.342;2023-03-04T00:29:12;100558.38;;;-13.65;53.09
69737;BME280;64476;55.004;73.342;2023-03-04T00:32:15;100590.34;;;-13.53;52.72
69737;BME280;64476;55.004;73.342;2023-03-04T00:35:18;100540.78;;;-13.85;52.57
69737;BME280;64476;55.004;73.342;2023-03-04T00:38:20;100596.28;;;-13.63;53.05
69737;BME280;64476;55.004;73.342;2023-03-04T00:41:21;100598.84;;;-13.68;52.96
69737;BME280;64476;55.004;73.342;2023-03-04T00:44:23;100598.00;;;-13.76;53.47
69737;BME280;64476;55.004;73.342;2023-03-04T00:47:33;100627.41;;;-13.55;52.99
69737;BME280;64476;55.004;73.342;2023-03-04T00:50:35;100585.41;;;-13.82;53.51
69737;BME280;64476;55.004;73.342;2023-03-04T00:53:37;100603.09;;;-13.84;53.13
69737;BME280;64476;55.004;73.342;2023-03-04T00:56:39;100620.75;;;-13.71;53.21
69737;BME280;64476;55.004;73.342;2023-03-04T00:59:46;100619.09;;;-13.79;53.76
69737;BME280;64476;55.004;73.342;2023-03-04T01:02:48;100546.03;;;-14.29;53.33
69737;BME280;64476;55.004;73.342;2023-03-04T01:05:50;100609.91;;;-14.04;53.61
69737;BME280;64476;55.004;73.342;2023-03-04T01:08:52;100624.19;;;-14.00;53.97
69737;BME280;64476;55.004;73.342;2023-03-04T01:11:53;100621.66;;;-13.97;53.78
69737;BME280;64476;55.004;73.342;2023-03-04T01:14:55;100575.41;;;-14.14;54.05
69737;BME280;64476;55.004;73.342;2023-03-04T01:17:59;100614.06;;;-13.91;54.01
69737;BME280;64476;55.004;73.342;2023-03-04T01:21:32;100626.63;;;-13.69;53.78
69737;BME280;64476;55.004;73.342;2023-03-04T01:24:44;100566.13;;;-14.14;53.62
69737;BME280;64476;55.004;73.342;2023-03-04T01:28:20;100646.00;;;-13.76;53.37
69737;BME280;64476;55.004;73.342;2023-03-04T01:31:32;100571.19;;;-14.20;53.50
69737;BME280;64476;55.004;73.342;2023-03-04T01:34:35;100550.22;;;-14.30;53.09
69737;BME280;64476;55.004;73.342;2023-03-04T01:37:38;100640.94;;;-13.73;53.82
69737;BME280;64476;55.004;73.342;2023-03-04T01:41:18;100639.25;;;-13.73;53.82
69737;BME280;64476;55.004;73.342;2023-03-04T01:44:23;100643.47;;;-13.76;53.78
69737;BME280;64476;55.004;73.342;2023-03-04T01:47:28;100547.69;;;-14.31;53.73
69737;BME280;64476;55.004;73.342;2023-03-04T01:50:33;100652.72;;;-13.63;54.07
69737;BME280;64476;55.004;73.342;2023-03-04T01:53:36;100609.84;;;-13.87;53.96
69737;BME280;64476;55.004;73.342;2023-03-04T01:56:39;100604.81;;;-13.95;53.93
69737;BME280;64476;55.004;73.342;2023-03-04T01:59:41;100613.25;;;-14.10;54.28
69737;BME280;64476;55.004;73.342;2023-03-04T02:02:43;100650.28;;;-13.95;54.35
69737;BME280;64476;55.004;73.342;2023-03-04T02:05:51;100587.25;;;-14.39;54.14
69737;BME280;64476;55.004;73.342;2023-03-04T02:08:59;100650.31;;;-14.12;54.97
69737;BME280;64476;55.004;73.342;2023-03-04T02:12:10;100660.38;;;-14.00;54.68
69737;BME280;64476;55.004;73.342;2023-03-04T02:15:12;100658.72;;;-13.98;55.05
69737;BME280;64476;55.004;73.342;2023-03-04T02:18:21;100654.47;;;-13.91;54.85
69737;BME280;64476;55.004;73.342;2023-03-04T02:21:33;100672.09;;;-13.73;54.52
69737;BME280;64476;55.004;73.342;2023-03-04T02:24:46;100664.53;;;-13.66;53.74
69737;BME280;64476;55.004;73.342;2023-03-04T02:27:50;100602.28;;;-13.92;54.06
69737;BME280;64476;55.004;73.342;2023-03-04T02:30:53;100635.00;;;-13.61;53.48
69737;BME280;64476;55.004;73.342;2023-03-04T02:33:58;100661.03;;;-13.35;54.02
69737;BME280;64476;55.004;73.342;2023-03-04T02:37:02;100575.31;;;-13.82;53.27
69737;BME280;64476;55.004;73.342;2023-03-04T02:40:05;100682.00;;;-13.14;53.37
69737;BME280;64476;55.004;73.342;2023-03-04T02:43:13;100616.47;;;-13.56;53.81
69737;BME280;64476;55.004;73.342;2023-03-04T02:46:15;100618.09;;;-13.50;53.68
69737;BME280;64476;55.004;73.342;2023-03-04T02:49:18;100635.81;;;-13.49;53.84
69737;BME280;64476;55.004;73.342;2023-03-04T02:52:29;100650.97;;;-13.47;54.16
69737;BME280;64476;55.004;73.342;2023-03-04T02:55:32;100662.69;;;-13.35;54.03
69737;BME280;64476;55.004;73.342;2023-03-04T02:58:34;100619.00;;;-13.59;53.70
69737;BME280;64476;55.004;73.342;2023-03-04T03:01:38;100685.34;;;-13.08;53.99
69737;BME280;64476;55.004;73.342;2023-03-04T03:04:45;100655.91;;;-13.21;53.52
69737;BME280;64476;55.004;73.342;2023-03-04T03:07:50;100683.56;;;-12.92;53.35
69737;BME280;64476;55.004;73.342;2023-03-04T03:11:02;100675.97;;;-12.89;53.93
69737;BME280;64476;55.004;73.342;2023-03-04T03:14:06;100702.00;;;-12.70;53.82
69737;BME280;64476;55.004;73.342;2023-03-04T03:17:18;100701.09;;;-12.60;53.31
69737;BME280;64476;55.004;73.342;2023-03-04T03:20:21;100657.31;;;-12.72;53.00
69737;BME280;64476;55.004;73.342;2023-03-04T03:23:23;100669.84;;;-12.56;53.10
69737;BME280;64476;55.004;73.342;2023-03-04T03:26:26;100615.13;;;-12.73;52.80
69737;BME280;64476;55.004;73.342;2023-03-04T03:29:28;100639.41;;;-12.46;52.61
69737;BME280;64476;55.004;73.342;2023-03-04T03:32:29;100690.53;;;-12.09;52.50
69737;BME280;64476;55.004;73.342;2023-03-04T03:35:31;100700.59;;;-12.00;52.90
69737;BME280;64476;55.004;73.342;2023-03-04T03:38:33;100668.69;;;-12.19;52.83
69737;BME280;64476;55.004;73.342;2023-03-04T03:41:35;100708.03;;;-11.85;52.61
69737;BME280;64476;55.004;73.342;2023-03-04T03:44:44;100655.88;;;-12.04;52.35
69737;BME280;64476;55.004;73.342;2023-03-04T03:47:51;100697.69;;;-11.62;52.51
69737;BME280;64476;55.004;73.342;2023-03-04T03:50:57;100726.22;;;-11.43;52.06
69737;BME280;64476;55.004;73.342;2023-03-04T03:53:58;100707.72;;;-11.51;53.04
69737;BME280;64476;55.004;73.342;2023-03-04T03:57:00;100702.56;;;-11.45;52.26
69737;BME280;64476;55.004;73.342;2023-03-04T04:00:04;100725.91;;;-11.17;52.78
69737;BME280;64476;55.004;73.342;2023-03-04T04:03:14;100684.59;;;-11.26;52.32
69737;BME280;64476;55.004;73.342;2023-03-04T04:06:16;100676.88;;;-11.17;51.93
69737;BME280;64476;55.004;73.342;2023-03-04T04:09:18;100698.53;;;-10.93;51.97
69737;BME280;64476;55.004;73.342;2023-03-04T04:12:30;100727.06;;;-10.73;52.01
69737;BME280;64476;55.004;73.342;2023-03-04T04:15:32;100732.84;;;-10.65;51.95
69737;BME280;64476;55.004;73.342;2023-03-04T04:18:43;100693.34;;;-10.86;52.25
69737;BME280;64476;55.004;73.342;2023-03-04T04:21:48;100737.91;;;-10.63;52.97
69737;BME280;64476;55.004;73.342;2023-03-04T04:24:55;100731.06;;;-10.60;53.00
69737;BME280;64476;55.004;73.342;2023-03-04T04:27:57;100681.41;;;-10.79;52.45
69737;BME280;64476;55.004;73.342;2023-03-04T04:31:15;100674.75;;;-10.85;52.58
69737;BME280;64476;55.004;73.342;2023-03-04T04:34:17;100746.09;;;-10.44;52.79
69737;BME280;64476;55.004;73.342;2023-03-04T04:37:18;100737.63;;;-10.45;52.76
69737;BME280;64476;55.004;73.342;2023-03-04T04:40:25;100739.91;;;-10.25;52.76
69737;BME280;64476;55.004;73.342;2023-03-04T04:43:27;100697.06;;;-10.48;52.94
69737;BME280;64476;55.004;73.342;2023-03-04T04:46:34;100721.28;;;-10.27;52.32
69737;BME280;64476;55.004;73.342;2023-03-04T04:49:40;100729.81;;;-10.31;52.81
69737;BME280;64476;55.004;73.342;2023-03-04T04:52:48;100696.81;;;-10.33;52.21
69737;BME280;64476;55.004;73.342;2023-03-04T04:55:49;100699.81;;;-10.09;52.25
69737;BME280;64476;55.004;73.342;2023-03-04T04:58:58;100710.63;;;-9.96;52.08
69737;BME280;64476;55.004;73.342;2023-03-04T05:02:00;100754.00;;;-9.57;52.16
69737;BME280;64476;55.004;73.342;2023-03-04T05:05:10;100742.06;;;-9.54;52.32
69737;BME280;64476;55.004;73.342;2023-03-04T05:11:59;100776.06;;;-9.12;51.72
69737;BME280;64476;55.004;73.342;2023-03-04T05:15:00;100704.53;;;-9.43;51.63
69737;BME280;64476;55.004;73.342;2023-03-04T05:18:02;100704.38;;;-9.33;51.65
69737;BME280;64476;55.004;73.342;2023-03-04T05:21:15;100752.63;;;-8.87;51.27
69737;BME280;64476;55.004;73.342;2023-03-04T05:24:17;100763.25;;;-8.68;51.35
69737;BME280;64476;55.004;73.342;2023-03-04T05:27:23;100745.88;;;-8.88;51.38
69737;BME280;64476;55.004;73.342;2023-03-04T05:30:30;100708.00;;;-9.05;51.22
69737;BME280;64476;55.004;73.342;2023-03-04T05:33:31;100740.66;;;-8.83;51.03
69737;BME280;64476;55.004;73.342;2023-03-04T05:36:33;100767.84;;;-8.84;51.35
69737;BME280;64476;55.004;73.342;2023-03-04T05:39:34;100719.66;;;-8.93;51.00
69737;BME280;64476;55.004;73.342;2023-03-04T05:42:36;100716.88;;;-8.82;51.30
69737;BME280;64476;55.004;73.342;2023-03-04T05:45:48;100749.06;;;-8.40;51.26
69737;BME280;64476;55.004;73.342;2023-03-04T05:48:51;100761.44;;;-8.24;50.87
69737;BME280;64476;55.004;73.342;2023-03-04T05:51:53;100673.25;;;-8.69;50.99
69737;BME280;64476;55.004;73.342;2023-03-04T05:54:58;100721.66;;;-8.30;51.34
69737;BME280;64476;55.004;73.342;2023-03-04T05:58:00;100703.94;;;-8.36;51.09
69737;BME280;64476;55.004;73.342;2023-03-04T06:01:03;100731.97;;;-8.00;51.01
69737;BME280;64476;55.004;73.342;2023-03-04T06:04:05;100739.25;;;-7.85;50.85
69737;BME280;64476;55.004;73.342;2023-03-04T06:07:07;100753.13;;;-7.62;50.68
69737;BME280;64476;55.004;73.342;2023-03-04T06:10:19;100741.75;;;-7.49;50.56
69737;BME280;64476;55.004;73.342;2023-03-04T06:13:26;100684.22;;;-7.62;50.68
69737;BME280;64476;55.004;73.342;2023-03-04T06:16:28;100705.75;;;-7.40;50.61
69737;BME280;64476;55.004;73.342;2023-03-04T06:19:36;100737.59;;;-7.22;50.71
69737;BME280;64476;55.004;73.342;2023-03-04T06:22:42;100688.47;;;-7.30;50.83
69737;BME280;64476;55.004;73.342;2023-03-04T06:25:44;100738.13;;;-6.81;50.59
69737;BME280;64476;55.004;73.342;2023-03-04T06:28:46;100728.28;;;-6.65;50.53
69737;BME280;64476;55.004;73.342;2023-03-04T06:31:47;100684.63;;;-6.86;50.05
69737;BME280;64476;55.004;73.342;2023-03-04T06:34:55;100731.81;;;-6.70;50.14
69737;BME280;64476;55.004;73.342;2023-03-04T06:38:05;100688.84;;;-6.85;50.50
69737;BME280;64476;55.004;73.342;2023-03-04T06:41:15;100744.41;;;-6.63;50.74
69737;BME280;64476;55.004;73.342;2023-03-04T06:44:21;100736.38;;;-6.51;50.61
69737;BME280;64476;55.004;73.342;2023-03-04T06:47:24;100739.34;;;-6.37;50.20
69737;BME280;64476;55.004;73.342;2023-03-04T06:50:25;100732.31;;;-6.30;50.42
69737;BME280;64476;55.004;73.342;2023-03-04T06:53:27;100694.78;;;-6.30;50.07
69737;BME280;64476;55.004;73.342;2023-03-04T06:56:35;100738.97;;;-5.73;50.08
69737;BME280;64476;55.004;73.342;2023-03-04T06:59:36;100761.72;;;-5.39;49.61
69737;BME280;64476;55.004;73.342;2023-03-04T07:02:38;100753.22;;;-5.39;49.29
69737;BME280;64476;55.004;73.342;2023-03-04T07:05:39;100748.50;;;-5.52;49.39
69737;BME280;64476;55.004;73.342;2023-03-04T07:08:47;100700.38;;;-5.67;49.44
69737;BME280;64476;55.004;73.342;2023-03-04T07:11:59;100707.97;;;-5.40;49.18
69737;BME280;64476;55.004;73.342;2023-03-04T07:15:03;100693.59;;;-5.43;49.14
69737;BME280;64476;55.004;73.342;2023-03-04T07:18:11;100698.25;;;-5.31;49.00
69737;BME280;64476;55.004;73.342;2023-03-04T07:21:18;100734.63;;;-4.98;49.12
69737;BME280;64476;55.004;73.342;2023-03-04T07:24:19;100738.13;;;-4.77;49.08
69737;BME280;64476;55.004;73.342;2023-03-04T07:27:22;100740.75;;;-4.56;48.66
69737;BME280;64476;55.004;73.342;2023-03-04T07:30:24;100721.47;;;-4.66;48.78
69737;BME280;64476;55.004;73.342;2023-03-04T07:33:28;100731.63;;;-4.63;48.96
69737;BME280;64476;55.004;73.342;2023-03-04T07:36:35;100690.47;;;-4.82;49.08
69737;BME280;64476;55.004;73.342;2023-03-04T07:39:46;100690.28;;;-4.78;49.05
69737;BME280;64476;55.004;73.342;2023-03-04T07:42:49;100733.31;;;-4.40;49.04
69737;BME280;64476;55.004;73.342;2023-03-04T07:46:01;100730.16;;;-4.47;48.70
69737;BME280;64476;55.004;73.342;2023-03-04T07:49:10;100688.41;;;-4.72;48.80
69737;BME280;64476;55.004;73.342;2023-03-04T07:52:14;100736.94;;;-4.46;49.41
69737;BME280;64476;55.004;73.342;2023-03-04T07:55:20;100739.94;;;-4.35;49.37
69737;BME280;64476;55.004;73.342;2023-03-04T07:58:27;100689.84;;;-4.43;49.18
69737;BME280;64476;55.004;73.342;2023-03-04T08:01:34;100666.91;;;-4.48;48.25
69737;BME280;64476;55.004;73.342;2023-03-04T08:04:49;100675.72;;;-4.33;48.27
69737;BME280;64476;55.004;73.342;2023-03-04T08:07:51;100676.50;;;-4.31;48.46
69737;BME280;64476;55.004;73.342;2023-03-04T08:10:52;100730.06;;;-4.02;48.06
69737;BME280;64476;55.004;73.342;2023-03-04T08:13:54;100683.38;;;-4.54;48.05
69737;BME280;64476;55.004;73.342;2023-03-04T08:17:02;100686.25;;;-4.61;48.45
69737;BME280;64476;55.004;73.342;2023-03-04T08:20:15;100725.53;;;-4.17;48.20
69737;BME280;64476;55.004;73.342;2023-03-04T08:24:00;100687.94;;;-4.18;48.18
69737;BME280;64476;55.004;73.342;2023-03-04T08:27:04;100680.81;;;-4.11;48.01
69737;BME280;64476;55.004;73.342;2023-03-04T08:30:07;100740.28;;;-3.59;48.16
69737;BME280;64476;55.004;73.342;2023-03-04T08:33:41;100702.78;;;-3.84;47.91
69737;BME280;64476;55.004;73.342;2023-03-04T08:36:43;100735.84;;;-3.76;47.74
69737;BME280;64476;55.004;73.342;2023-03-04T08:39:45;100730.75;;;-3.98;48.17
69737;BME280;64476;55.004;73.342;2023-03-04T08:42:52;100734.06;;;-4.16;48.41
69737;BME280;64476;55.004;73.342;2023-03-04T08:45:54;100737.88;;;-4.27;49.25
69737;BME280;64476;55.004;73.342;2023-03-04T08:49:06;100753.53;;;-4.11;49.22
69737;BME280;64476;55.004;73.342;2023-03-04T08:52:08;100682.88;;;-4.62;49.46
69737;BME280;64476;55.004;73.342;2023-03-04T08:55:09;100740.75;;;-4.12;49.67
69737;BME280;64476;55.004;73.342;2023-03-04T08:58:11;100693.09;;;-4.40;49.90
69737;BME280;64476;55.004;73.342;2023-03-04T09:01:15;100724.03;;;-4.22;50.14
69737;BME280;64476;55.004;73.342;2023-03-04T09:08:28;100738.84;;;-4.07;50.17
69737;BME280;64476;55.004;73.342;2023-03-04T09:11:32;100682.78;;;-4.38;50.73
69737;BME280;64476;55.004;73.342;2023-03-04T09:14:34;100745.13;;;-3.94;50.70
69737;BME280;64476;55.004;73.342;2023-03-04T09:17:36;100737.63;;;-3.98;50.87
69737;BME280;64476;55.004;73.342;2023-03-04T09:20:38;100741.44;;;-3.87;50.50
69737;BME280;64476;55.004;73.342;2023-03-04T09:23:40;100692.38;;;-4.01;50.87
69737;BME280;64476;55.004;73.342;2023-03-04T09:26:42;100738.97;;;-3.49;50.88
69737;BME280;64476;55.004;73.342;2023-03-04T09:29:43;100740.41;;;-3.23;50.63
69737;BME280;64476;55.004;73.342;2023-03-04T09:32:46;100743.50;;;-3.15;50.37
69737;BME280;64476;55.004;73.342;2023-03-04T09:35:48;100716.78;;;-3.31;50.27
69737;BME280;64476;55.004;73.342;2023-03-04T09:38:50;100728.94;;;-3.35;50.55
69737;BME280;64476;55.004;73.342;2023-03-04T09:41:55;100753.09;;;-3.18;50.45
69737;BME280;64476;55.004;73.342;2023-03-04T09:45:21;100743.41;;;-3.13;49.91
69737;BME280;64476;55.004;73.342;2023-03-04T09:48:27;100718.84;;;-3.19;50.10
69737;BME280;64476;55.004;73.342;2023-03-04T09:51:50;100705.81;;;-3.35;50.35
69737;BME280;64476;55.004;73.342;2023-03-04T09:58:38;100750.50;;;-3.18;50.40
69737;BME280;64476;55.004;73.342;2023-03-04T10:01:55;100740.59;;;-3.07;50.48
69737;BME280;64476;55.004;73.342;2023-03-04T10:05:02;100697.00;;;-3.29;50.08
69737;BME280;64476;55.004;73.342;2023-03-04T10:11:44;100717.72;;;-3.93;51.54
69737;BME280;64476;55.004;73.342;2023-03-04T10:14:56;100745.53;;;-3.83;51.84
69737;BME280;64476;55.004;73.342;2023-03-04T10:18:06;100702.22;;;-4.33;52.32
69737;BME280;64476;55.004;73.342;2023-03-04T10:24:27;100723.09;;;-4.20;52.23
69737;BME280;64476;55.004;73.342;2023-03-04T10:27:30;100727.56;;;-4.03;52.29
69737;BME280;64476;55.004;73.342;2023-03-04T10:33:56;100746.25;;;-3.99;52.44
69737;BME280;64476;55.004;73.342;2023-03-04T10:37:03;100750.22;;;-3.92;53.14
69737;BME280;64476;55.004;73.342;2023-03-04T10:40:23;100754.84;;;-3.80;52.65
69737;BME280;64476;55.004;73.342;2023-03-04T10:43:26;100750.34;;;-3.75;52.55
69737;BME280;64476;55.004;73.342;2023-03-04T10:46:39;100724.03;;;-3.80;53.06
69737;BME280;64476;55.004;73.342;2023-03-04T10:49:52;100735.97;;;-3.59;52.76
69737;BME280;64476;55.004;73.342;2023-03-04T10:53:05;100702.22;;;-3.70;52.73
69737;BME280;64476;55.004;73.342;2023-03-04T10:56:56;100729.13;;;-3.19;52.95
69737;BME280;64476;55.004;73.342;2023-03-04T11:06:28;100678.41;;;-3.15;51.89
69737;BME280;64476;55.004;73.342;2023-03-04T11:09:43;100700.69;;;-3.16;52.19
69737;BME280;64476;55.004;73.342;2023-03-04T11:16:26;100703.25;;;-3.16;52.13
69737;BME280;64476;55.004;73.342;2023-03-04T11:19:37;100713.06;;;-3.05;51.93
69737;BME280;64476;55.004;73.342;2023-03-04T11:22:41;100661.78;;;-3.46;51.88
69737;BME280;64476;55.004;73.342;2023-03-04T11:26:04;100748.22;;;-3.06;52.45
69737;BME280;64476;55.004;73.342;2023-03-04T11:32:21;100748.22;;;-3.24;52.92
69737;BME280;64476;55.004;73.342;2023-03-04T11:35:47;100739.56;;;-3.42;53.13
69737;BME280;64476;55.004;73.342;2023-03-04T11:39:04;100759.19;;;-3.41;53.11
69737;BME280;64476;55.004;73.342;2023-03-04T11:43:02;100714.97;;;-3.68;53.24
69737;BME280;64476;55.004;73.342;2023-03-04T11:56:38;100759.19;;;-3.41;53.60
69737;BME280;64476;55.004;73.342;2023-03-04T12:20:16;100761.09;;;-3.65;55.21
69737;BME280;64476;55.004;73.342;2023-03-04T12:34:32;100713.13;;;-3.85;55.52
69737;BME280;64476;55.004;73.342;2023-03-04T12:41:29;100757.50;;;-3.41;54.93
69737;BME280;64476;55.004;73.342;2023-03-04T12:45:14;100729.41;;;-3.45;55.17
69737;BME280;64476;55.004;73.342;2023-03-04T12:52:20;100753.69;;;-3.32;55.33
69737;BME280;64476;55.004;73.342;2023-03-04T12:55:39;100699.31;;;-3.62;55.02
69737;BME280;64476;55.004;73.342;2023-03-04T12:58:42;100704.03;;;-3.53;54.87
69737;BME280;64476;55.004;73.342;2023-03-04T13:16:37;100709.31;;;-3.56;55.11
69737;BME280;64476;55.004;73.342;2023-03-04T13:20:11;100769.03;;;-3.31;55.42
69737;BME280;64476;55.004;73.342;2023-03-04T13:23:23;100732.03;;;-3.47;55.24
69737;BME280;64476;55.004;73.342;2023-03-04T13:26:29;100725.50;;;-3.54;54.88
69737;BME280;64476;55.004;73.342;2023-03-04T13:29:36;100749.06;;;-3.44;55.27
69737;BME280;64476;55.004;73.342;2023-03-04T13:32:41;100751.13;;;-3.53;55.55
69737;BME280;64476;55.004;73.342;2023-03-04T13:38:59;100786.50;;;-3.39;55.97
69737;BME280;64476;55.004;73.342;2023-03-04T13:42:02;100793.06;;;-3.52;56.21
69737;BME280;64476;55.004;73.342;2023-03-04T13:48:35;100789.84;;;-3.57;56.24
69737;BME280;64476;55.004;73.342;2023-03-04T13:51:41;100798.47;;;-3.58;56.88
69737;BME280;64476;55.004;73.342;2023-03-04T13:54:50;100750.09;;;-4.11;57.29
69737;BME280;64476;55.004;73.342;2023-03-04T13:57:54;100782.41;;;-4.06;57.98
69737;BME280;64476;55.004;73.342;2023-03-04T14:01:27;100808.41;;;-3.93;58.42
69737;BME280;64476;55.004;73.342;2023-03-04T14:08:19;100767.41;;;-4.37;58.55
69737;BME280;64476;55.004;73.342;2023-03-04T14:12:04;100812.25;;;-4.25;58.57
69737;BME280;64476;55.004;73.342;2023-03-04T14:15:27;100771.25;;;-4.49;58.36
69737;BME280;64476;55.004;73.342;2023-03-04T14:18:33;100801.16;;;-4.26;57.95
69737;BME280;64476;55.004;73.342;2023-03-04T14:21:36;100792.97;;;-4.35;58.03
69737;BME280;64476;55.004;73.342;2023-03-04T14:24:54;100743.91;;;-4.71;58.37
69737;BME280;64476;55.004;73.342;2023-03-04T14:28:08;100786.28;;;-4.39;57.32
69737;BME280;64476;55.004;73.342;2023-03-04T14:31:20;100773.66;;;-4.44;57.48
69737;BME280;64476;55.004;73.342;2023-03-04T14:34:29;100772.88;;;-4.46;57.66
69737;BME280;64476;55.004;73.342;2023-03-04T14:37:44;100836.50;;;-4.10;57.16
69737;BME280;64476;55.004;73.342;2023-03-04T14:40:51;100779.22;;;-4.56;56.87
69737;BME280;64476;55.004;73.342;2023-03-04T14:47:30;100835.59;;;-4.09;56.29
69737;BME280;64476;55.004;73.342;2023-03-04T14:50:34;100823.19;;;-4.20;56.77
69737;BME280;64476;55.004;73.342;2023-03-04T14:53:53;100829.56;;;-4.08;56.44
69737;BME280;64476;55.004;73.342;2023-03-04T14:57:23;100813.75;;;-4.19;56.27
69737;BME280;64476;55.004;73.342;2023-03-04T15:00:29;100843.81;;;-4.01;55.91
69737;BME280;64476;55.004;73.342;2023-03-04T15:06:55;100842.88;;;-4.20;56.30
69737;BME280;64476;55.004;73.342;2023-03-04T15:09:58;100828.06;;;-4.36;56.35
69737;BME280;64476;55.004;73.342;2023-03-04T15:13:08;100799.03;;;-4.60;57.05
69737;BME280;64476;55.004;73.342;2023-03-04T15:16:15;100856.09;;;-4.31;57.09
69737;BME280;64476;55.004;73.342;2023-03-04T15:19:25;100835.88;;;-4.39;56.79
69737;BME280;64476;55.004;73.342;2023-03-04T15:22:27;100837.59;;;-4.39;57.24
69737;BME280;64476;55.004;73.342;2023-03-04T15:25:29;100851.19;;;-4.37;57.79
69737;BME280;64476;55.004;73.342;2023-03-04T15:28:41;100817.94;;;-4.62;57.32
69737;BME280;64476;55.004;73.342;2023-03-04T15:31:44;100811.69;;;-4.55;57.59
69737;BME280;64476;55.004;73.342;2023-03-04T15:34:48;100792.31;;;-4.62;57.87
69737;BME280;64476;55.004;73.342;2023-03-04T15:38:05;100829.31;;;-4.24;57.70
69737;BME280;64476;55.004;73.342;2023-03-04T15:41:24;100841.53;;;-4.07;57.61
69737;BME280;64476;55.004;73.342;2023-03-04T15:44:26;100801.88;;;-4.22;57.34
69737;BME280;64476;55.004;73.342;2023-03-04T15:47:31;100843.53;;;-3.93;57.91
69737;BME280;64476;55.004;73.342;2023-03-04T15:50:36;100788.06;;;-4.19;57.41
69737;BME280;64476;55.004;73.342;2023-03-04T15:53:47;100816.31;;;-3.97;57.93
69737;BME280;64476;55.004;73.342;2023-03-04T15:56:53;100829.50;;;-3.85;57.72
69737;BME280;64476;55.004;73.342;2023-03-04T15:59:55;100792.59;;;-4.04;57.95
69737;BME280;64476;55.004;73.342;2023-03-04T16:02:57;100785.94;;;-4.08;57.42
69737;BME280;64476;55.004;73.342;2023-03-04T16:05:59;100835.66;;;-3.89;57.80
69737;BME280;64476;55.004;73.342;2023-03-04T16:09:00;100840.19;;;-3.73;58.00
69737;BME280;64476;55.004;73.342;2023-03-04T16:12:04;100831.94;;;-3.82;57.56
69737;BME280;64476;55.004;73.342;2023-03-04T16:15:24;100848.19;;;-3.81;57.68
69737;BME280;64476;55.004;73.342;2023-03-04T16:18:30;100845.22;;;-3.92;57.60
69737;BME280;64476;55.004;73.342;2023-03-04T16:21:32;100843.72;;;-3.98;57.71
69737;BME280;64476;55.004;73.342;2023-03-04T16:24:34;100825.81;;;-3.99;57.67
69737;BME280;64476;55.004;73.342;2023-03-04T16:28:08;100845.97;;;-3.90;57.43
69737;BME280;64476;55.004;73.342;2023-03-04T16:31:15;100818.47;;;-4.09;57.29
69737;BME280;64476;55.004;73.342;2023-03-04T16:34:17;100827.28;;;-3.94;57.19
69737;BME280;64476;55.004;73.342;2023-03-04T16:37:19;100832.06;;;-3.85;57.49
69737;BME280;64476;55.004;73.342;2023-03-04T16:40:29;100778.59;;;-4.17;57.32
69737;BME280;64476;55.004;73.342;2023-03-04T16:43:31;100800.59;;;-4.12;57.56
69737;BME280;64476;55.004;73.342;2023-03-04T16:46:39;100834.88;;;-3.91;57.61
69737;BME280;64476;55.004;73.342;2023-03-04T16:49:41;100828.91;;;-3.91;57.65
69737;BME280;64476;55.004;73.342;2023-03-04T16:52:44;100848.53;;;-3.90;57.97
69737;BME280;64476;55.004;73.342;2023-03-04T16:55:46;100807.28;;;-4.08;57.64
69737;BME280;64476;55.004;73.342;2023-03-04T16:59:01;100855.00;;;-3.80;57.80
69737;BME280;64476;55.004;73.342;2023-03-04T17:02:02;100840.34;;;-3.78;57.43
69737;BME280;64476;55.004;73.342;2023-03-04T17:05:18;100847.69;;;-3.69;57.34
69737;BME280;64476;55.004;73.342;2023-03-04T17:08:20;100789.03;;;-4.00;57.54
69737;BME280;64476;55.004;73.342;2023-03-04T17:11:22;100834.03;;;-3.69;57.94
69737;BME280;64476;55.004;73.342;2023-03-04T17:14:24;100831.56;;;-3.72;58.17
69737;BME280;64476;55.004;73.342;2023-03-04T17:17:26;100837.03;;;-3.60;58.10
69737;BME280;64476;55.004;73.342;2023-03-04T17:20:27;100834.41;;;-3.58;58.22
69737;BME280;64476;55.004;73.342;2023-03-04T17:23:34;100832.75;;;-3.59;58.07
69737;BME280;64476;55.004;73.342;2023-03-04T17:26:35;100763.50;;;-4.03;57.54
69737;BME280;64476;55.004;73.342;2023-03-04T17:29:42;100833.91;;;-3.66;57.74
69737;BME280;64476;55.004;73.342;2023-03-04T17:32:48;100823.47;;;-3.63;57.73
69737;BME280;64476;55.004;73.342;2023-03-04T17:35:50;100829.03;;;-3.52;57.50
69737;BME280;64476;55.004;73.342;2023-03-04T17:39:03;100834.75;;;-3.45;57.27
69737;BME280;64476;55.004;73.342;2023-03-04T17:42:14;100827.94;;;-3.46;56.74
69737;BME280;64476;55.004;73.342;2023-03-04T17:45:21;100858.09;;;-3.30;56.61
69737;BME280;64476;55.004;73.342;2023-03-04T17:48:23;100846.13;;;-3.31;56.15
69737;BME280;64476;55.004;73.342;2023-03-04T17:51:29;100846.13;;;-3.31;56.02
69737;BME280;64476;55.004;73.342;2023-03-04T17:54:31;100848.69;;;-3.31;56.02
69737;BME280;64476;55.004;73.342;2023-03-04T17:57:43;100784.41;;;-3.70;55.71
69737;BME280;64476;55.004;73.342;2023-03-04T18:00:45;100833.53;;;-3.37;55.50